sensor_id;sensor_type;location;lat;lon;timestamp;temperature;humidity
24164;DHT22;12319;49.204;8.116;2023-07-16T00:00:59;21.30;95.40
24164;DHT22;12319;49.204;8.116;2023-07-16T00:03:24;21.20;95.30
24164;DHT22;12319;49.204;8.116;2023-07-16T00:05:50;21.20;95.20
24164;DHT22;12319;49.204;8.116;2023-07-16T00:08:16;21.10;95.40
24164;DHT22;12319;49.204;8.116;2023-07-16T00:10:42;21.10;96.00
24164;DHT22;12319;49.204;8.116;2023-07-16T00:13:07;21.00;95.40
24164;DHT22;12319;49.204;8.116;2023-07-16T00:15:33;21.00;95.20
24164;DHT22;12319;49.204;8.116;2023-07-16T00:17:58;21.00;96.00
24164;DHT22;12319;49.204;8.116;2023-07-16T00:20:24;21.00;95.80
24164;DHT22;12319;49.204;8.116;2023-07-16T00:22:50;20.90;95.60
24164;DHT22;12319;49.204;8.116;2023-07-16T00:25:16;20.90;95.70
24164;DHT22;12319;49.204;8.116;2023-07-16T00:27:41;20.90;95.40
24164;DHT22;12319;49.204;8.116;2023-07-16T00:30:07;20.90;95.50
24164;DHT22;12319;49.204;8.116;2023-07-16T00:32:33;20.80;95.20
24164;DHT22;12319;49.204;8.116;2023-07-16T00:35:00;20.90;95.20
24164;DHT22;12319;49.204;8.116;2023-07-16T00:37:25;20.90;96.10
24164;DHT22;12319;49.204;8.116;2023-07-16T00:39:51;20.80;96.30
24164;DHT22;12319;49.204;8.116;2023-07-16T00:42:16;20.80;95.90
24164;DHT22;12319;49.204;8.116;2023-07-16T00:44:42;20.80;95.50
24164;DHT22;12319;49.204;8.116;2023-07-16T00:47:08;20.70;95.60
24164;DHT22;12319;49.204;8.116;2023-07-16T00:49:34;20.70;95.50
24164;DHT22;12319;49.204;8.116;2023-07-16T00:52:00;20.60;95.70
24164;DHT22;12319;49.204;8.116;2023-07-16T00:54:26;20.60;95.60
24164;DHT22;12319;49.204;8.116;2023-07-16T00:56:53;20.60;95.30
24164;DHT22;12319;49.204;8.116;2023-07-16T00:59:18;20.60;95.20
24164;DHT22;12319;49.204;8.116;2023-07-16T01:01:44;20.60;95.00
24164;DHT22;12319;49.204;8.116;2023-07-16T01:04:09;20.60;95.10
24164;DHT22;12319;49.204;8.116;2023-07-16T01:06:38;20.50;95.10
24164;DHT22;12319;49.204;8.116;2023-07-16T01:09:13;20.50;94.90
24164;DHT22;12319;49.204;8.116;2023-07-16T01:11:40;20.40;95.10
24164;DHT22;12319;49.204;8.116;2023-07-16T01:14:07;20.40;94.90
24164;DHT22;12319;49.204;8.116;2023-07-16T01:16:33;20.40;94.90
24164;DHT22;12319;49.204;8.116;2023-07-16T01:18:59;20.40;94.80
24164;DHT22;12319;49.204;8.116;2023-07-16T01:21:29;20.30;94.70
24164;DHT22;12319;49.204;8.116;2023-07-16T01:27:30;20.40;95.00
24164;DHT22;12319;49.204;8.116;2023-07-16T01:30:04;20.40;95.10
24164;DHT22;12319;49.204;8.116;2023-07-16T01:32:31;20.40;94.90
24164;DHT22;12319;49.204;8.116;2023-07-16T01:34:57;20.30;94.90
24164;DHT22;12319;49.204;8.116;2023-07-16T01:37:22;20.20;94.90
24164;DHT22;12319;49.204;8.116;2023-07-16T01:39:49;20.20;94.80
24164;DHT22;12319;49.204;8.116;2023-07-16T01:42:14;20.10;94.70
24164;DHT22;12319;49.204;8.116;2023-07-16T01:44:40;20.10;94.50
24164;DHT22;12319;49.204;8.116;2023-07-16T01:47:10;20.00;94.50
24164;DHT22;12319;49.204;8.116;2023-07-16T01:49:36;20.00;94.40
24164;DHT22;12319;49.204;8.116;2023-07-16T01:52:04;20.00;94.30
24164;DHT22;12319;49.204;8.116;2023-07-16T01:54:30;19.90;94.00
24164;DHT22;12319;49.204;8.116;2023-07-16T01:56:55;19.90;94.00
24164;DHT22;12319;49.204;8.116;2023-07-16T01:59:21;19.90;94.00
24164;DHT22;12319;49.204;8.116;2023-07-16T02:01:46;19.90;94.00
24164;DHT22;12319;49.204;8.116;2023-07-16T02:04:12;19.90;94.10
24164;DHT22;12319;49.204;8.116;2023-07-16T02:06:37;19.80;94.00
24164;DHT22;12319;49.204;8.116;2023-07-16T02:09:03;19.60;93.70
24164;DHT22;12319;49.204;8.116;2023-07-16T02:11:28;19.70;93.60
24164;DHT22;12319;49.204;8.116;2023-07-16T02:13:54;19.70;93.70
24164;DHT22;12319;49.204;8.116;2023-07-16T02:16:20;19.60;93.80
24164;DHT22;12319;49.204;8.116;2023-07-16T02:18:45;19.50;93.60
24164;DHT22;12319;49.204;8.116;2023-07-16T02:21:11;19.40;93.80
24164;DHT22;12319;49.204;8.116;2023-07-16T02:23:36;19.40;93.70
24164;DHT22;12319;49.204;8.116;2023-07-16T02:26:02;19.30;93.60
24164;DHT22;12319;49.204;8.116;2023-07-16T02:28:28;19.30;93.80
24164;DHT22;12319;49.204;8.116;2023-07-16T02:30:53;19.30;93.70
24164;DHT22;12319;49.204;8.116;2023-07-16T02:33:19;19.30;93.60
24164;DHT22;12319;49.204;8.116;2023-07-16T02:35:48;19.20;93.80
24164;DHT22;12319;49.204;8.116;2023-07-16T02:38:17;19.20;93.70
24164;DHT22;12319;49.204;8.116;2023-07-16T02:40:44;19.10;93.70
24164;DHT22;12319;49.204;8.116;2023-07-16T02:43:10;19.10;93.50
24164;DHT22;12319;49.204;8.116;2023-07-16T02:45:35;19.10;93.70
24164;DHT22;12319;49.204;8.116;2023-07-16T02:48:02;19.10;93.60
24164;DHT22;12319;49.204;8.116;2023-07-16T02:50:28;19.00;93.40
24164;DHT22;12319;49.204;8.116;2023-07-16T02:52:54;19.00;93.50
24164;DHT22;12319;49.204;8.116;2023-07-16T02:55:19;19.00;93.70
24164;DHT22;12319;49.204;8.116;2023-07-16T02:57:45;18.90;93.60
24164;DHT22;12319;49.204;8.116;2023-07-16T03:00:10;18.90;93.70
24164;DHT22;12319;49.204;8.116;2023-07-16T03:02:36;18.90;93.60
24164;DHT22;12319;49.204;8.116;2023-07-16T03:05:02;19.00;93.60
24164;DHT22;12319;49.204;8.116;2023-07-16T03:07:27;19.00;93.70
24164;DHT22;12319;49.204;8.116;2023-07-16T03:09:53;19.00;93.70
24164;DHT22;12319;49.204;8.116;2023-07-16T03:12:18;19.00;93.70
24164;DHT22;12319;49.204;8.116;2023-07-16T03:14:44;19.00;93.90
24164;DHT22;12319;49.204;8.116;2023-07-16T03:17:09;19.00;93.90
24164;DHT22;12319;49.204;8.116;2023-07-16T03:19:35;19.00;93.70
24164;DHT22;12319;49.204;8.116;2023-07-16T03:22:00;19.00;93.90
24164;DHT22;12319;49.204;8.116;2023-07-16T03:24:26;19.00;93.70
24164;DHT22;12319;49.204;8.116;2023-07-16T03:26:51;19.00;93.70
24164;DHT22;12319;49.204;8.116;2023-07-16T03:29:17;19.00;93.40
24164;DHT22;12319;49.204;8.116;2023-07-16T03:31:42;19.00;93.60
24164;DHT22;12319;49.204;8.116;2023-07-16T03:34:08;19.10;93.50
24164;DHT22;12319;49.204;8.116;2023-07-16T03:36:33;19.10;93.40
24164;DHT22;12319;49.204;8.116;2023-07-16T03:38:59;19.10;93.40
24164;DHT22;12319;49.204;8.116;2023-07-16T03:41:24;19.10;93.50
24164;DHT22;12319;49.204;8.116;2023-07-16T03:43:50;19.10;93.70
24164;DHT22;12319;49.204;8.116;2023-07-16T03:46:15;19.10;93.50
24164;DHT22;12319;49.204;8.116;2023-07-16T03:48:41;19.10;93.50
24164;DHT22;12319;49.204;8.116;2023-07-16T03:51:06;19.10;93.70
24164;DHT22;12319;49.204;8.116;2023-07-16T03:53:32;19.10;93.50
24164;DHT22;12319;49.204;8.116;2023-07-16T03:55:57;19.10;93.50
24164;DHT22;12319;49.204;8.116;2023-07-16T03:58:23;19.10;93.70
24164;DHT22;12319;49.204;8.116;2023-07-16T04:00:49;19.10;93.40
24164;DHT22;12319;49.204;8.116;2023-07-16T04:03:14;19.10;93.50
24164;DHT22;12319;49.204;8.116;2023-07-16T04:05:40;19.10;93.50
24164;DHT22;12319;49.204;8.116;2023-07-16T04:08:05;19.10;93.40
24164;DHT22;12319;49.204;8.116;2023-07-16T04:10:31;19.00;93.60
24164;DHT22;12319;49.204;8.116;2023-07-16T04:12:56;19.00;93.50
24164;DHT22;12319;49.204;8.116;2023-07-16T04:15:22;19.00;93.40
24164;DHT22;12319;49.204;8.116;2023-07-16T04:17:47;19.00;93.50
24164;DHT22;12319;49.204;8.116;2023-07-16T04:20:13;19.10;93.50
24164;DHT22;12319;49.204;8.116;2023-07-16T04:22:39;19.00;93.10
24164;DHT22;12319;49.204;8.116;2023-07-16T04:25:05;19.00;93.10
24164;DHT22;12319;49.204;8.116;2023-07-16T04:27:31;19.00;93.20
24164;DHT22;12319;49.204;8.116;2023-07-16T04:29:56;19.00;93.30
24164;DHT22;12319;49.204;8.116;2023-07-16T04:32:22;19.10;93.30
24164;DHT22;12319;49.204;8.116;2023-07-16T04:34:47;19.00;93.20
24164;DHT22;12319;49.204;8.116;2023-07-16T04:37:13;19.00;93.20
24164;DHT22;12319;49.204;8.116;2023-07-16T04:39:38;19.00;93.10
24164;DHT22;12319;49.204;8.116;2023-07-16T04:42:04;19.00;93.20
24164;DHT22;12319;49.204;8.116;2023-07-16T04:44:30;19.00;93.30
24164;DHT22;12319;49.204;8.116;2023-07-16T04:46:55;19.00;93.00
24164;DHT22;12319;49.204;8.116;2023-07-16T04:49:21;19.00;93.00
24164;DHT22;12319;49.204;8.116;2023-07-16T04:51:46;19.10;93.00
24164;DHT22;12319;49.204;8.116;2023-07-16T04:54:12;19.10;92.90
24164;DHT22;12319;49.204;8.116;2023-07-16T04:56:37;19.20;92.90
24164;DHT22;12319;49.204;8.116;2023-07-16T04:59:03;19.20;92.80
24164;DHT22;12319;49.204;8.116;2023-07-16T05:01:28;19.20;92.80
24164;DHT22;12319;49.204;8.116;2023-07-16T05:03:54;19.30;92.80
24164;DHT22;12319;49.204;8.116;2023-07-16T05:06:19;19.30;92.70
24164;DHT22;12319;49.204;8.116;2023-07-16T05:08:45;19.40;92.70
24164;DHT22;12319;49.204;8.116;2023-07-16T05:11:11;19.50;92.60
24164;DHT22;12319;49.204;8.116;2023-07-16T05:13:37;19.50;92.50
24164;DHT22;12319;49.204;8.116;2023-07-16T05:16:03;19.60;92.40
24164;DHT22;12319;49.204;8.116;2023-07-16T05:18:28;19.70;92.30
24164;DHT22;12319;49.204;8.116;2023-07-16T05:20:54;19.80;92.20
24164;DHT22;12319;49.204;8.116;2023-07-16T05:23:19;19.80;92.20
24164;DHT22;12319;49.204;8.116;2023-07-16T05:25:49;19.90;92.10
24164;DHT22;12319;49.204;8.116;2023-07-16T05:28:16;20.00;92.20
24164;DHT22;12319;49.204;8.116;2023-07-16T05:30:42;20.00;92.00
24164;DHT22;12319;49.204;8.116;2023-07-16T05:33:07;20.20;91.90
24164;DHT22;12319;49.204;8.116;2023-07-16T05:35:33;20.20;91.90
24164;DHT22;12319;49.204;8.116;2023-07-16T05:37:58;20.30;91.70
24164;DHT22;12319;49.204;8.116;2023-07-16T05:40:24;20.40;91.60
24164;DHT22;12319;49.204;8.116;2023-07-16T05:42:49;20.40;91.40
24164;DHT22;12319;49.204;8.116;2023-07-16T05:45:15;20.50;91.30
24164;DHT22;12319;49.204;8.116;2023-07-16T05:47:40;20.50;91.20
24164;DHT22;12319;49.204;8.116;2023-07-16T05:50:06;20.50;91.20
24164;DHT22;12319;49.204;8.116;2023-07-16T05:52:32;20.50;91.10
24164;DHT22;12319;49.204;8.116;2023-07-16T05:54:58;20.50;90.80
24164;DHT22;12319;49.204;8.116;2023-07-16T05:57:23;20.60;91.00
24164;DHT22;12319;49.204;8.116;2023-07-16T05:59:49;20.80;90.90
24164;DHT22;12319;49.204;8.116;2023-07-16T06:02:14;21.10;91.00
24164;DHT22;12319;49.204;8.116;2023-07-16T06:04:40;21.50;90.60
24164;DHT22;12319;49.204;8.116;2023-07-16T06:07:05;21.90;90.20
24164;DHT22;12319;49.204;8.116;2023-07-16T06:09:32;22.10;88.90
24164;DHT22;12319;49.204;8.116;2023-07-16T06:11:58;22.20;87.00
24164;DHT22;12319;49.204;8.116;2023-07-16T06:14:24;22.30;86.80
24164;DHT22;12319;49.204;8.116;2023-07-16T06:16:49;22.30;85.60
24164;DHT22;12319;49.204;8.116;2023-07-16T06:19:15;22.50;86.30
24164;DHT22;12319;49.204;8.116;2023-07-16T06:21:40;23.50;86.40
24164;DHT22;12319;49.204;8.116;2023-07-16T06:24:06;24.60;83.20
24164;DHT22;12319;49.204;8.116;2023-07-16T06:26:32;26.00;80.60
24164;DHT22;12319;49.204;8.116;2023-07-16T06:28:57;28.20;70.70
24164;DHT22;12319;49.204;8.116;2023-07-16T06:31:23;28.20;73.90
24164;DHT22;12319;49.204;8.116;2023-07-16T06:33:48;29.20;72.30
24164;DHT22;12319;49.204;8.116;2023-07-16T06:36:14;30.30;67.30
24164;DHT22;12319;49.204;8.116;2023-07-16T06:38:40;30.90;65.50
24164;DHT22;12319;49.204;8.116;2023-07-16T06:41:06;30.70;63.70
24164;DHT22;12319;49.204;8.116;2023-07-16T06:43:31;29.90;62.90
24164;DHT22;12319;49.204;8.116;2023-07-16T06:45:57;29.30;62.90
24164;DHT22;12319;49.204;8.116;2023-07-16T06:48:22;28.50;62.10
24164;DHT22;12319;49.204;8.116;2023-07-16T06:50:49;27.90;62.90
24164;DHT22;12319;49.204;8.116;2023-07-16T06:53:15;27.40;63.50
24164;DHT22;12319;49.204;8.116;2023-07-16T06:55:40;27.00;64.70
24164;DHT22;12319;49.204;8.116;2023-07-16T06:58:10;26.70;64.20
24164;DHT22;12319;49.204;8.116;2023-07-16T07:00:36;26.70;65.30
24164;DHT22;12319;49.204;8.116;2023-07-16T07:03:02;26.50;65.40
24164;DHT22;12319;49.204;8.116;2023-07-16T07:05:27;26.60;65.90
24164;DHT22;12319;49.204;8.116;2023-07-16T07:07:53;26.80;65.10
24164;DHT22;12319;49.204;8.116;2023-07-16T07:10:20;27.30;63.60
24164;DHT22;12319;49.204;8.116;2023-07-16T07:12:45;27.50;64.30
24164;DHT22;12319;49.204;8.116;2023-07-16T07:15:11;28.00;63.20
24164;DHT22;12319;49.204;8.116;2023-07-16T07:17:36;28.20;61.00
24164;DHT22;12319;49.204;8.116;2023-07-16T07:20:02;29.20;61.60
24164;DHT22;12319;49.204;8.116;2023-07-16T07:22:29;30.80;60.30
24164;DHT22;12319;49.204;8.116;2023-07-16T07:24:54;32.00;57.90
24164;DHT22;12319;49.204;8.116;2023-07-16T07:27:20;32.70;57.00
24164;DHT22;12319;49.204;8.116;2023-07-16T07:29:45;32.90;55.20
24164;DHT22;12319;49.204;8.116;2023-07-16T07:32:12;33.70;54.10
24164;DHT22;12319;49.204;8.116;2023-07-16T07:34:38;34.70;53.60
24164;DHT22;12319;49.204;8.116;2023-07-16T07:37:04;34.70;51.10
24164;DHT22;12319;49.204;8.116;2023-07-16T07:39:30;34.90;48.40
24164;DHT22;12319;49.204;8.116;2023-07-16T07:41:56;35.00;48.70
24164;DHT22;12319;49.204;8.116;2023-07-16T07:44:21;35.10;47.00
24164;DHT22;12319;49.204;8.116;2023-07-16T07:46:47;34.30;47.70
24164;DHT22;12319;49.204;8.116;2023-07-16T07:49:12;33.30;44.90
24164;DHT22;12319;49.204;8.116;2023-07-16T07:51:38;32.50;46.70
24164;DHT22;12319;49.204;8.116;2023-07-16T07:54:03;31.80;46.60
24164;DHT22;12319;49.204;8.116;2023-07-16T07:56:29;31.40;48.10
24164;DHT22;12319;49.204;8.116;2023-07-16T07:58:55;30.30;47.80
24164;DHT22;12319;49.204;8.116;2023-07-16T08:01:21;30.30;49.10
24164;DHT22;12319;49.204;8.116;2023-07-16T08:03:46;30.20;48.50
24164;DHT22;12319;49.204;8.116;2023-07-16T08:06:12;29.70;49.60
24164;DHT22;12319;49.204;8.116;2023-07-16T08:08:38;29.40;49.10
24164;DHT22;12319;49.204;8.116;2023-07-16T08:11:03;29.10;49.90
24164;DHT22;12319;49.204;8.116;2023-07-16T08:13:29;28.60;49.30
24164;DHT22;12319;49.204;8.116;2023-07-16T08:15:54;28.20;50.50
24164;DHT22;12319;49.204;8.116;2023-07-16T08:18:20;28.80;51.30
24164;DHT22;12319;49.204;8.116;2023-07-16T08:20:46;29.90;50.00
24164;DHT22;12319;49.204;8.116;2023-07-16T08:23:12;30.80;48.80
24164;DHT22;12319;49.204;8.116;2023-07-16T08:25:37;31.90;48.00
24164;DHT22;12319;49.204;8.116;2023-07-16T08:28:03;33.00;48.50
24164;DHT22;12319;49.204;8.116;2023-07-16T08:30:29;34.10;44.00
24164;DHT22;12319;49.204;8.116;2023-07-16T08:32:54;34.70;43.20
24164;DHT22;12319;49.204;8.116;2023-07-16T08:35:20;34.30;41.50
24164;DHT22;12319;49.204;8.116;2023-07-16T08:37:46;33.60;44.10
24164;DHT22;12319;49.204;8.116;2023-07-16T08:40:12;33.50;43.60
24164;DHT22;12319;49.204;8.116;2023-07-16T08:42:39;33.00;43.70
24164;DHT22;12319;49.204;8.116;2023-07-16T08:45:10;32.50;45.20
24164;DHT22;12319;49.204;8.116;2023-07-16T08:47:35;32.10;45.40
24164;DHT22;12319;49.204;8.116;2023-07-16T08:50:01;31.50;45.90
24164;DHT22;12319;49.204;8.116;2023-07-16T08:52:28;30.80;46.50
24164;DHT22;12319;49.204;8.116;2023-07-16T08:54:55;30.10;47.30
24164;DHT22;12319;49.204;8.116;2023-07-16T08:57:21;29.40;47.20
24164;DHT22;12319;49.204;8.116;2023-07-16T08:59:50;28.80;48.50
24164;DHT22;12319;49.204;8.116;2023-07-16T09:02:20;28.30;49.40
24164;DHT22;12319;49.204;8.116;2023-07-16T09:04:49;27.80;49.00
24164;DHT22;12319;49.204;8.116;2023-07-16T09:07:17;27.40;49.60
24164;DHT22;12319;49.204;8.116;2023-07-16T09:09:42;26.90;50.60
24164;DHT22;12319;49.204;8.116;2023-07-16T09:12:12;26.50;51.50
24164;DHT22;12319;49.204;8.116;2023-07-16T09:14:38;26.30;51.80
24164;DHT22;12319;49.204;8.116;2023-07-16T09:17:05;26.10;52.20
24164;DHT22;12319;49.204;8.116;2023-07-16T09:19:34;25.90;52.40
24164;DHT22;12319;49.204;8.116;2023-07-16T09:21:59;25.90;52.40
24164;DHT22;12319;49.204;8.116;2023-07-16T09:24:25;25.80;52.60
24164;DHT22;12319;49.204;8.116;2023-07-16T09:26:53;25.70;52.80
24164;DHT22;12319;49.204;8.116;2023-07-16T09:29:19;25.60;53.00
24164;DHT22;12319;49.204;8.116;2023-07-16T09:31:56;25.50;53.40
24164;DHT22;12319;49.204;8.116;2023-07-16T09:34:22;25.50;53.40
24164;DHT22;12319;49.204;8.116;2023-07-16T09:36:48;25.50;53.40
24164;DHT22;12319;49.204;8.116;2023-07-16T09:39:18;25.60;54.00
24164;DHT22;12319;49.204;8.116;2023-07-16T09:41:47;25.70;53.50
24164;DHT22;12319;49.204;8.116;2023-07-16T09:44:13;25.90;53.60
24164;DHT22;12319;49.204;8.116;2023-07-16T09:46:39;26.00;53.70
24164;DHT22;12319;49.204;8.116;2023-07-16T09:49:06;26.30;53.00
24164;DHT22;12319;49.204;8.116;2023-07-16T09:51:32;26.30;52.70
24164;DHT22;12319;49.204;8.116;2023-07-16T09:54:01;26.40;52.70
24164;DHT22;12319;49.204;8.116;2023-07-16T09:56:38;26.50;52.70
24164;DHT22;12319;49.204;8.116;2023-07-16T09:59:16;26.70;52.20
24164;DHT22;12319;49.204;8.116;2023-07-16T10:01:42;26.80;51.60
24164;DHT22;12319;49.204;8.116;2023-07-16T10:04:17;26.90;51.80
24164;DHT22;12319;49.204;8.116;2023-07-16T10:06:59;26.90;50.60
24164;DHT22;12319;49.204;8.116;2023-07-16T10:09:35;26.80;50.50
24164;DHT22;12319;49.204;8.116;2023-07-16T10:12:11;26.70;51.20
24164;DHT22;12319;49.204;8.116;2023-07-16T10:14:49;26.60;51.40
24164;DHT22;12319;49.204;8.116;2023-07-16T10:17:15;26.60;51.10
24164;DHT22;12319;49.204;8.116;2023-07-16T10:19:48;26.70;51.10
24164;DHT22;12319;49.204;8.116;2023-07-16T10:22:14;26.70;50.90
24164;DHT22;12319;49.204;8.116;2023-07-16T10:24:40;26.70;51.10
24164;DHT22;12319;49.204;8.116;2023-07-16T10:27:06;26.70;50.50
24164;DHT22;12319;49.204;8.116;2023-07-16T10:29:32;26.70;50.10
24164;DHT22;12319;49.204;8.116;2023-07-16T10:32:00;26.80;50.50
24164;DHT22;12319;49.204;8.116;2023-07-16T10:34:27;26.80;50.80
24164;DHT22;12319;49.204;8.116;2023-07-16T10:36:52;26.90;50.40
24164;DHT22;12319;49.204;8.116;2023-07-16T10:39:18;27.00;50.30
24164;DHT22;12319;49.204;8.116;2023-07-16T10:41:43;27.10;48.90
24164;DHT22;12319;49.204;8.116;2023-07-16T10:44:10;27.20;47.90
24164;DHT22;12319;49.204;8.116;2023-07-16T10:46:37;27.30;48.60
24164;DHT22;12319;49.204;8.116;2023-07-16T10:49:03;27.40;46.30
24164;DHT22;12319;49.204;8.116;2023-07-16T10:51:28;27.40;48.20
24164;DHT22;12319;49.204;8.116;2023-07-16T10:53:57;27.20;48.50
24164;DHT22;12319;49.204;8.116;2023-07-16T10:56:23;27.10;49.20
24164;DHT22;12319;49.204;8.116;2023-07-16T10:58:49;27.00;49.30
24164;DHT22;12319;49.204;8.116;2023-07-16T11:01:15;27.00;50.00
24164;DHT22;12319;49.204;8.116;2023-07-16T11:03:40;27.00;49.70
24164;DHT22;12319;49.204;8.116;2023-07-16T11:06:08;27.00;49.90
24164;DHT22;12319;49.204;8.116;2023-07-16T11:08:33;26.90;50.00
24164;DHT22;12319;49.204;8.116;2023-07-16T11:10:59;26.90;50.00
24164;DHT22;12319;49.204;8.116;2023-07-16T11:13:29;26.90;50.00
24164;DHT22;12319;49.204;8.116;2023-07-16T11:15:55;26.80;50.20
24164;DHT22;12319;49.204;8.116;2023-07-16T11:18:24;27.00;50.00
24164;DHT22;12319;49.204;8.116;2023-07-16T11:20:51;27.10;49.80
24164;DHT22;12319;49.204;8.116;2023-07-16T11:23:17;27.20;48.20
24164;DHT22;12319;49.204;8.116;2023-07-16T11:25:51;27.40;48.30
24164;DHT22;12319;49.204;8.116;2023-07-16T11:28:17;27.50;48.40
24164;DHT22;12319;49.204;8.116;2023-07-16T11:30:42;27.60;48.90
24164;DHT22;12319;49.204;8.116;2023-07-16T11:33:11;27.80;48.90
24164;DHT22;12319;49.204;8.116;2023-07-16T11:35:37;27.90;46.50
24164;DHT22;12319;49.204;8.116;2023-07-16T11:38:06;28.00;47.90
24164;DHT22;12319;49.204;8.116;2023-07-16T11:40:34;28.00;48.10
24164;DHT22;12319;49.204;8.116;2023-07-16T11:43:11;28.10;48.40
24164;DHT22;12319;49.204;8.116;2023-07-16T11:45:37;28.10;46.60
24164;DHT22;12319;49.204;8.116;2023-07-16T11:48:03;28.10;45.40
24164;DHT22;12319;49.204;8.116;2023-07-16T11:50:30;28.00;48.00
24164;DHT22;12319;49.204;8.116;2023-07-16T11:52:59;28.10;47.90
24164;DHT22;12319;49.204;8.116;2023-07-16T11:55:24;28.10;47.50
24164;DHT22;12319;49.204;8.116;2023-07-16T11:57:50;28.20;45.80
24164;DHT22;12319;49.204;8.116;2023-07-16T12:00:16;28.20;45.00
24164;DHT22;12319;49.204;8.116;2023-07-16T12:02:42;28.20;45.70
24164;DHT22;12319;49.204;8.116;2023-07-16T12:05:08;28.20;45.90
24164;DHT22;12319;49.204;8.116;2023-07-16T12:07:37;28.40;47.60
24164;DHT22;12319;49.204;8.116;2023-07-16T12:10:05;28.50;47.30
24164;DHT22;12319;49.204;8.116;2023-07-16T12:12:30;28.70;45.40
24164;DHT22;12319;49.204;8.116;2023-07-16T12:14:56;28.90;46.30
24164;DHT22;12319;49.204;8.116;2023-07-16T12:17:22;29.00;45.80
24164;DHT22;12319;49.204;8.116;2023-07-16T12:19:47;29.10;43.90
24164;DHT22;12319;49.204;8.116;2023-07-16T12:22:14;29.10;45.30
24164;DHT22;12319;49.204;8.116;2023-07-16T12:24:41;29.20;44.80
24164;DHT22;12319;49.204;8.116;2023-07-16T12:27:07;29.10;42.00
24164;DHT22;12319;49.204;8.116;2023-07-16T12:29:32;28.80;44.40
24164;DHT22;12319;49.204;8.116;2023-07-16T12:31:58;28.60;45.10
24164;DHT22;12319;49.204;8.116;2023-07-16T12:34:23;28.40;45.80
24164;DHT22;12319;49.204;8.116;2023-07-16T12:36:49;28.50;45.30
24164;DHT22;12319;49.204;8.116;2023-07-16T12:39:14;28.60;45.30
24164;DHT22;12319;49.204;8.116;2023-07-16T12:41:40;28.60;45.30
24164;DHT22;12319;49.204;8.116;2023-07-16T12:44:05;28.70;45.40
24164;DHT22;12319;49.204;8.116;2023-07-16T12:46:31;29.00;44.30
24164;DHT22;12319;49.204;8.116;2023-07-16T12:48:56;29.30;44.80
24164;DHT22;12319;49.204;8.116;2023-07-16T12:51:22;29.60;44.00
24164;DHT22;12319;49.204;8.116;2023-07-16T12:53:47;29.80;44.80
24164;DHT22;12319;49.204;8.116;2023-07-16T12:56:13;30.30;44.50
24164;DHT22;12319;49.204;8.116;2023-07-16T12:58:39;30.60;44.60
24164;DHT22;12319;49.204;8.116;2023-07-16T13:01:04;30.90;43.90
24164;DHT22;12319;49.204;8.116;2023-07-16T13:03:30;31.10;44.90
24164;DHT22;12319;49.204;8.116;2023-07-16T13:05:55;31.30;43.50
24164;DHT22;12319;49.204;8.116;2023-07-16T13:08:21;31.50;40.60
24164;DHT22;12319;49.204;8.116;2023-07-16T13:10:46;31.50;42.10
24164;DHT22;12319;49.204;8.116;2023-07-16T13:13:12;31.60;41.60
24164;DHT22;12319;49.204;8.116;2023-07-16T13:15:37;31.70;42.20
24164;DHT22;12319;49.204;8.116;2023-07-16T13:18:03;31.80;42.70
24164;DHT22;12319;49.204;8.116;2023-07-16T13:20:28;31.90;41.80
24164;DHT22;12319;49.204;8.116;2023-07-16T13:22:55;32.10;41.50
24164;DHT22;12319;49.204;8.116;2023-07-16T13:25:20;32.20;42.10
24164;DHT22;12319;49.204;8.116;2023-07-16T13:27:46;32.30;41.50
24164;DHT22;12319;49.204;8.116;2023-07-16T13:30:12;32.50;41.70
24164;DHT22;12319;49.204;8.116;2023-07-16T13:32:37;32.50;40.80
24164;DHT22;12319;49.204;8.116;2023-07-16T13:35:03;32.60;39.70
24164;DHT22;12319;49.204;8.116;2023-07-16T13:37:29;32.60;38.70
24164;DHT22;12319;49.204;8.116;2023-07-16T13:39:54;32.60;38.50
24164;DHT22;12319;49.204;8.116;2023-07-16T13:42:20;32.50;39.50
24164;DHT22;12319;49.204;8.116;2023-07-16T13:44:45;32.40;40.00
24164;DHT22;12319;49.204;8.116;2023-07-16T13:47:11;32.30;40.30
24164;DHT22;12319;49.204;8.116;2023-07-16T13:49:36;32.50;40.50
24164;DHT22;12319;49.204;8.116;2023-07-16T13:52:02;32.70;39.90
24164;DHT22;12319;49.204;8.116;2023-07-16T13:54:27;33.00;40.10
24164;DHT22;12319;49.204;8.116;2023-07-16T13:56:53;33.20;39.50
24164;DHT22;12319;49.204;8.116;2023-07-16T13:59:18;33.30;39.10
24164;DHT22;12319;49.204;8.116;2023-07-16T14:01:44;33.40;36.50
24164;DHT22;12319;49.204;8.116;2023-07-16T14:04:09;33.40;38.90
24164;DHT22;12319;49.204;8.116;2023-07-16T14:06:35;33.40;38.10
24164;DHT22;12319;49.204;8.116;2023-07-16T14:09:01;33.40;37.70
24164;DHT22;12319;49.204;8.116;2023-07-16T14:11:26;33.30;38.30
24164;DHT22;12319;49.204;8.116;2023-07-16T14:13:52;33.40;38.70
24164;DHT22;12319;49.204;8.116;2023-07-16T14:16:19;33.40;39.00
24164;DHT22;12319;49.204;8.116;2023-07-16T14:18:44;33.40;38.80
24164;DHT22;12319;49.204;8.116;2023-07-16T14:21:10;33.20;39.20
24164;DHT22;12319;49.204;8.116;2023-07-16T14:23:36;33.30;36.00
24164;DHT22;12319;49.204;8.116;2023-07-16T14:26:02;33.40;38.60
24164;DHT22;12319;49.204;8.116;2023-07-16T14:28:28;33.40;38.60
24164;DHT22;12319;49.204;8.116;2023-07-16T14:30:53;33.00;38.30
24164;DHT22;12319;49.204;8.116;2023-07-16T14:33:19;32.90;39.10
24164;DHT22;12319;49.204;8.116;2023-07-16T14:35:45;33.00;39.40
24164;DHT22;12319;49.204;8.116;2023-07-16T14:38:10;33.20;39.10
24164;DHT22;12319;49.204;8.116;2023-07-16T14:40:36;33.20;39.30
24164;DHT22;12319;49.204;8.116;2023-07-16T14:43:06;33.20;38.90
24164;DHT22;12319;49.204;8.116;2023-07-16T14:45:33;33.30;38.60
24164;DHT22;12319;49.204;8.116;2023-07-16T14:47:59;33.30;38.80
24164;DHT22;12319;49.204;8.116;2023-07-16T14:50:24;33.40;39.10
24164;DHT22;12319;49.204;8.116;2023-07-16T14:52:50;33.40;38.40
24164;DHT22;12319;49.204;8.116;2023-07-16T14:55:15;33.40;38.10
24164;DHT22;12319;49.204;8.116;2023-07-16T14:57:41;33.40;38.10
24164;DHT22;12319;49.204;8.116;2023-07-16T15:00:07;33.30;38.10
24164;DHT22;12319;49.204;8.116;2023-07-16T15:02:36;33.20;38.40
24164;DHT22;12319;49.204;8.116;2023-07-16T15:05:03;33.20;38.50
24164;DHT22;12319;49.204;8.116;2023-07-16T15:07:30;33.10;38.90
24164;DHT22;12319;49.204;8.116;2023-07-16T15:09:55;32.90;38.80
24164;DHT22;12319;49.204;8.116;2023-07-16T15:12:21;32.80;38.90
24164;DHT22;12319;49.204;8.116;2023-07-16T15:14:46;32.60;38.90
24164;DHT22;12319;49.204;8.116;2023-07-16T15:17:12;32.30;39.20
24164;DHT22;12319;49.204;8.116;2023-07-16T15:19:37;32.10;39.50
24164;DHT22;12319;49.204;8.116;2023-07-16T15:22:04;31.90;39.50
24164;DHT22;12319;49.204;8.116;2023-07-16T15:24:30;31.70;39.70
24164;DHT22;12319;49.204;8.116;2023-07-16T15:26:55;31.30;39.50